This is the latest recevied weather packets stored in our database for station/object VU3IZK-13. If no packets are shown the sender has not sent any weather packets the latest 10 day(s).
| Time | Temp. | Humidity | Pressure | Rain* | Wind** | Luminosity | Snow |
|---|---|---|---|---|---|---|---|
| 1777555829 | 28.33° C | 48% | 0 hPa | 0 mm | - | - | - |
| 1777554907 | 28.89° C | 47% | 0 hPa | 0 mm | - | - | - |
| 1777554008 | 28.89° C | 55% | 0 hPa | 0 mm | - | - | - |
| 1777553131 | 29.44° C | 54% | 0 hPa | 0 mm | - | - | - |
| 1777552232 | 30.56° C | 55% | 0 hPa | 0 mm | - | - | - |
| 1777551311 | 31.67° C | 49% | 0 hPa | 0 mm | - | - | - |
| 1777549529 | 32.78° C | 40% | 0 hPa | 0 mm | - | - | - |
| 1777548610 | 32.78° C | 39% | 0 hPa | 0 mm | - | - | - |
| 1777546810 | 33.33° C | 38% | 0 hPa | 0 mm | - | - | - |
| 1777545029 | 33.33° C | 38% | 0 hPa | 0 mm | - | - | - |
| 1777544108 | 33.33° C | 38% | 0 hPa | 0 mm | - | - | - |
| 1777543230 | 34.44° C | 38% | 0 hPa | 0 mm | - | - | - |
| 1777542331 | 35° C | 36% | 0 hPa | 0 mm | - | - | - |
| 1777541410 | 34.44° C | 37% | 0 hPa | 0 mm | - | - | - |
| 1777540509 | 33.89° C | 40% | 0 hPa | 0 mm | - | - | - |
| 1777539625 | 33.33° C | 38% | 0 hPa | 0 mm | - | - | - |
| 1777538704 | 33.89° C | 36% | 0 hPa | 0 mm | - | - | - |
| 1777537844 | 33.33° C | 37% | 0 hPa | 0 mm | - | - | - |
| 1777536921 | 33.33° C | 37% | 0 hPa | 0 mm | - | - | - |
| 1777535137 | 32.78° C | 40% | 0 hPa | 0 mm | - | - | - |
| 1777534212 | 32.78° C | 41% | 0 hPa | 0 mm | - | - | - |
| 1777533329 | 32.22° C | 46% | 0 hPa | 0 mm | - | - | - |
| 1777532405 | 32.22° C | 42% | 0 hPa | 0 mm | - | - | - |
| 1777531505 | 32.22° C | 42% | 0 hPa | 0 mm | - | - | - |
| 1777530623 | 31.67° C | 45% | 0 hPa | 0 mm | - | - | - |
* Rain latest hour (hover to see other rain measurements)
** Current wind speed in m/s (hover to see current wind gust speed)